Flight Track Log - Related Links

Times and Time Zones

All times are in EDT time to prevent confusion due to time zone crossing. See the SWA695 flight status page for this flight to view local times or setup timezone preferences in your user account.


Time Position Orientation Groundspeed Altitude Reporting Facility
EDT Latitude Longitude Course Direction KTS MPH feet Rate Location/Type
Thu 07:44:57 PM 33.8636 -118.4897 205° Southwest 245 282 3,000  Level Los Angeles Center
Thu 07:46:00 PM 33.7925 -118.5036 189° South 263 303 5,000 1,968 Climbing Los Angeles Center
Thu 07:47:02 PM 33.7189 -118.5042 180° South 276 318 7,100 2,516 Climbing Los Angeles Center
Thu 07:48:04 PM 33.6686 -118.4083 122° Southeast 292 336 10,200 2,613 Climbing Los Angeles Center
Thu 07:49:00 PM 33.6334 -118.2673 90° East  Level FlightAware Approximate
Thu 07:49:06 PM 33.6417 -118.3078 108° East 326 375 12,500  Level Los Angeles Center
Thu 07:50:08 PM 33.6439 -118.1897 89° East 361 415 14,100 1,887 Climbing Los Angeles Center
Thu 07:51:10 PM 33.6436 -118.0575 90° East 398 458 16,400 2,496 Climbing Los Angeles Center
Thu 07:52:13 PM 33.6433 -117.8942 90° East 410 472 19,300 2,448 Climbing Los Angeles Center
Thu 07:53:15 PM 33.6436 -117.7525 90° East 423 487 21,500 1,887 Climbing Los Angeles Center
Thu 07:54:17 PM 33.6431 -117.6053 90° East 438 504 23,200 1,645 Climbing Los Angeles Center
Thu 07:55:19 PM 33.6419 -117.4519 90° East 455 524 24,900 1,645 Climbing Los Angeles Center
Thu 07:56:21 PM 33.6386 -117.2956 91° East 467 537 26,600 1,839 Climbing Los Angeles Center
Thu 07:57:23 PM 33.6136 -117.1075 99° East 477 549 28,700 1,776 Climbing Los Angeles Center
Thu 07:58:26 PM 33.5958 -116.9522 98° East 473 544 30,300 1,392 Climbing Los Angeles Center
Thu 07:59:28 PM 33.5775 -116.8081 99° East 475 547 31,600 1,839 Climbing Los Angeles Center
Thu 08:00:30 PM 33.5542 -116.6194 98° East 474 545 34,100 2,032 Climbing Los Angeles Center
Thu 08:01:32 PM 33.5358 -116.4697 98° East 456 525 35,800 1,210 Climbing Los Angeles Center
Thu 08:02:34 PM 33.5181 -116.3219 98° East 445 512 36,600 581 Climbing Los Angeles Center
Thu 08:03:36 PM 33.4978 -116.1686 99° East 459 528 37,000 192 Climbing Los Angeles Center
Thu 08:04:39 PM 33.4781 -116.0156 99° East 463 533 37,000  Level Los Angeles Center
Thu 08:05:41 PM 33.4581 -115.8644 99° East 462 532 37,000  Level Los Angeles Center
Thu 08:06:43 PM 33.4381 -115.7144 99° East 456 525 37,000  Level Los Angeles Center
Thu 08:07:45 PM 33.4142 -115.5347 99° East 456 525 37,000  Level Los Angeles Center
Thu 08:08:47 PM 33.3956 -115.3861 98° East 455 524 37,000  Level Los Angeles Center
Thu 08:09:49 PM 33.3744 -115.2361 100° East 455 524 37,000  Level Los Angeles Center
Thu 08:10:52 PM 33.3533 -115.0844 99° East 456 525 37,000  Level Los Angeles Center
Thu 08:11:54 PM 33.3331 -114.9339 99° East 459 528 37,000  Level Los Angeles Center
Thu 08:12:56 PM 33.3103 -114.7789 100° East 464 534 37,000  Level Los Angeles Center
Thu 08:13:58 PM 33.2864 -114.5994 99° East 461 531 37,000  Level Los Angeles Center
Thu 08:15:00 PM 33.2667 -114.4478 99° East 461 531 37,000  Level Los Angeles Center
Thu 08:16:02 PM 33.2453 -114.2964 100° East 460 529 37,000  Level Los Angeles Center
Thu 08:17:05 PM 33.2261 -114.1464 99° East 460 529 37,000  Level Los Angeles Center
Thu 08:18:07 PM 33.2031 -113.9964 100° East 460 529 37,000  Level Los Angeles Center
Thu 08:19:09 PM 33.1775 -113.8167 100° East 459 528 37,000  Level Los Angeles Center
Thu 08:20:11 PM 33.1558 -113.6694 100° East 457 526 37,000  Level Los Angeles Center
Thu 08:21:13 PM 33.1297 -113.5194 102° East 457 526 37,000  Level Los Angeles Center
Thu 08:22:15 PM 33.1050 -113.3686 101° East 458 527 37,000  Level Los Angeles Center
Thu 08:23:18 PM 33.0833 -113.2156 100° East 460 529 37,000  Level Los Angeles Center
Thu 08:24:20 PM 33.0603 -113.0647 100° East 461 531 37,000  Level Los Angeles Center
Thu 08:25:42 PM 33.0275 -112.8514 100° East 461 531 37,000  Level Albuquerque Center
Thu 08:26:43 PM 33.0036 -112.7028 101° East 459 528 37,000  Level Albuquerque Center
Thu 08:27:45 PM 32.9800 -112.5533 101° East 458 527 37,000  Level Albuquerque Center
Thu 08:28:47 PM 32.9561 -112.4033 101° East 458 527 37,000  Level Albuquerque Center
Thu 08:29:49 PM 32.9292 -112.2347 101° East 459 528 37,000  Level Albuquerque Center
Thu 08:30:50 PM 32.9056 -112.0858 101° East 459 528 37,000  Level Albuquerque Center
Thu 08:31:52 PM 32.8814 -111.9397 101° East 458 527 37,000  Level Albuquerque Center
Thu 08:32:54 PM 32.8581 -111.7919 101° East 457 526 37,000  Level Albuquerque Center
Thu 08:33:55 PM 32.8336 -111.6464 101° East 457 526 37,000 227 Level Albuquerque Center
Thu 08:35:59 PM 32.7806 -111.3314 104° East 447 514 37,700 551 Climbing Albuquerque Center
Thu 08:37:00 PM 32.7564 -111.1878 101° East 446 513 38,700 634 Climbing Albuquerque Center
Thu 08:38:02 PM 32.7314 -111.0450 102° East 445 512 39,000 145 Climbing Albuquerque Center
Thu 08:39:04 PM 32.7072 -110.9017 101° East 445 512 39,000  Level Albuquerque Center
Thu 08:40:05 PM 32.6817 -110.7581 102° East 445 512 39,000  Level Albuquerque Center
Thu 08:41:07 PM 32.6572 -110.6147 101° East 445 512 39,000  Level Albuquerque Center
Thu 08:42:09 PM 32.6261 -110.4417 102° East 446 513 39,000  Level Albuquerque Center
Thu 08:43:10 PM 32.6031 -110.3083 102° East 446 513 39,000  Level Albuquerque Center
Thu 08:44:12 PM 32.5764 -110.1650 102° East 445 512 39,000  Level Albuquerque Center
Thu 08:45:14 PM 32.5506 -110.0200 102° East 447 514 39,000  Level Albuquerque Center
Thu 08:46:15 PM 32.5203 -109.8500 102° East 447 514 39,000  Level Albuquerque Center
Thu 08:47:17 PM 32.4933 -109.7072 103° East 447 514 39,000  Level Albuquerque Center
Thu 08:48:19 PM 32.4653 -109.5647 103° East 447 514 39,000  Level Albuquerque Center
Thu 08:49:20 PM 32.4406 -109.4244 102° East 444 511 39,000  Level Albuquerque Center
Thu 08:50:22 PM 32.4136 -109.2819 103° East 444 511 39,000  Level Albuquerque Center
Thu 08:51:24 PM 32.3869 -109.1400 103° East 444 511 39,000  Level Albuquerque Center
Thu 08:52:25 PM 32.3547 -108.9706 103° East 444 511 39,000  Level Albuquerque Center
Thu 08:53:27 PM 32.3283 -108.8269 102° East 445 512 39,000  Level Albuquerque Center
Thu 08:54:29 PM 32.3008 -108.6842 103° East 446 513 39,000  Level Albuquerque Center
Thu 08:55:30 PM 32.2731 -108.5392 103° East 450 518 39,000  Level Albuquerque Center
Thu 08:56:32 PM 32.2417 -108.3803 103° East 450 518 39,000  Level Albuquerque Center
Thu 08:57:34 PM 32.2147 -108.2369 102° East 450 518 39,000  Level Albuquerque Center
Thu 08:58:35 PM 32.1858 -108.0936 103° East 450 518 39,000  Level Albuquerque Center
Thu 08:59:37 PM 32.1569 -107.9508 103° East 450 518 39,000  Level Albuquerque Center
Thu 09:00:38 PM 32.1297 -107.8092 103° East 449 517 39,000  Level Albuquerque Center
Thu 09:01:40 PM 32.1011 -107.6642 103° East 452 520 39,000  Level Albuquerque Center
Thu 09:02:42 PM 32.0825 -107.4894 97° East 455 524 39,000  Level Albuquerque Center
Thu 09:03:43 PM 32.0750 -107.3400 93° East 457 526 39,000  Level Albuquerque Center
Thu 09:04:45 PM 32.0700 -107.1906 92° East 458 527 39,000  Level Albuquerque Center
Thu 09:05:47 PM 32.0642 -107.0431 93° East 459 528 39,000  Level Albuquerque Center
Thu 09:06:48 PM 32.0297 -106.9006 106° East 459 528 39,000  Level Albuquerque Center
Thu 09:07:50 PM 31.9933 -106.7611 107° East 451 519 39,000  Level Albuquerque Center
Thu 09:08:51 PM 31.9483 -106.5900 107° East 455 524 39,000  Level Albuquerque Center
Thu 09:09:53 PM 31.9117 -106.4478 107° East 456 525 39,000  Level Albuquerque Center
Thu 09:10:55 PM 31.8778 -106.3175 107° East 474 545 39,000  Level Albuquerque Center
Thu 09:11:56 PM 31.8322 -106.1453 107° East 465 535 39,000  Level Albuquerque Center
Thu 09:12:58 PM 31.7942 -106.0064 108° East 451 519 39,000  Level Albuquerque Center
Thu 09:14:00 PM 31.7561 -105.8658 108° East 451 519 39,000  Level Albuquerque Center
Thu 09:15:01 PM 31.7186 -105.7244 107° East 451 519 39,000  Level Albuquerque Center
Thu 09:16:03 PM 31.6817 -105.5822 107° East 454 522 39,000  Level Albuquerque Center
Thu 09:17:04 PM 31.6428 -105.4389 108° East 456 525 39,000  Level Albuquerque Center
Thu 09:18:06 PM 31.6042 -105.2964 108° East 457 526 39,000  Level Albuquerque Center
Thu 09:19:08 PM 31.5669 -105.1533 107° East 457 526 39,000  Level Albuquerque Center
Thu 09:20:09 PM 31.5211 -104.9858 108° East 452 520 39,000  Level Albuquerque Center
Thu 09:21:11 PM 31.4819 -104.8456 108° East 452 520 39,000  Level Albuquerque Center
Thu 09:22:13 PM 31.4436 -104.7058 108° East 452 520 39,000  Level Albuquerque Center
Thu 09:23:14 PM 31.4058 -104.5678 108° East 448 516 39,000  Level Albuquerque Center
Thu 09:24:16 PM 31.3683 -104.4311 108° East 443 510 39,000  Level Albuquerque Center
Thu 09:25:17 PM 31.3308 -104.2944 108° East 443 510 39,000  Level Albuquerque Center
Thu 09:26:19 PM 31.2922 -104.1581 108° East 442 509 39,000  Level Albuquerque Center
Thu 09:27:21 PM 31.2517 -104.0206 109° East 442 509 39,000  Level Albuquerque Center
Thu 09:28:22 PM 31.2147 -103.8842 108° East 442 509 39,000  Level Albuquerque Center
Thu 09:29:24 PM 31.1678 -103.7292 109° East 444 511 39,000  Level Albuquerque Center
Thu 09:30:25 PM 31.1275 -103.5922 109° East 444 511 39,000  Level Albuquerque Center
Thu 09:31:27 PM 31.0875 -103.4553 109° East 445 512 39,000  Level Albuquerque Center
Thu 09:32:29 PM 31.0478 -103.3175 109° East 446 513 39,000  Level Albuquerque Center
Thu 09:33:30 PM 31.0011 -103.1528 108° East 447 514 39,000  Level Albuquerque Center
Thu 09:34:32 PM 30.9631 -103.0172 108° East 446 513 39,000  Level Albuquerque Center
Thu 09:35:33 PM 30.9244 -102.8767 108° East 451 519 39,000  Level Albuquerque Center
Thu 09:36:35 PM 30.8881 -102.7358 107° East 455 524 39,000  Level Albuquerque Center
Thu 09:37:17 PM 30.8600 -102.6244 106° East 453 521 39,000  Level Houston Center
Thu 09:38:18 PM 30.8236 -102.4842 107° East 454 522 39,000  Level Houston Center
Thu 09:39:20 PM 30.7881 -102.3453 107° East 454 522 39,000  Level Houston Center
Thu 09:40:21 PM 30.7517 -102.2072 107° East 454 522 39,000  Level Houston Center
Thu 09:41:22 PM 30.7147 -102.0686 107° East 454 522 39,000  Level Houston Center
Thu 09:42:24 PM 30.6778 -101.9303 107° East 454 522 39,000  Level Houston Center
Thu 09:43:25 PM 30.6408 -101.7936 107° East 449 517 39,000  Level Houston Center
Thu 09:44:27 PM 30.5969 -101.6264 107° East 450 518 39,000  Level Houston Center
Thu 09:45:28 PM 30.5606 -101.4900 107° East 451 519 39,000  Level Houston Center
Thu 09:46:30 PM 30.5225 -101.3500 107° East 452 520 39,000 -341 Level Houston Center
Thu 09:47:31 PM 30.4850 -101.2094 107° East 453 521 38,300 -829 Descending Houston Center
Thu 09:48:33 PM 30.4472 -101.0719 108° East 453 521 37,300 -634 Descending Houston Center
Thu 09:49:34 PM 30.4089 -100.9383 108° East 452 520 37,000 -148 Descending Houston Center
Thu 09:50:35 PM 30.3711 -100.7958 107° East 449 517 37,000  Level Houston Center
Thu 09:51:37 PM 30.3331 -100.6581 108° East 450 518 37,000  Level Houston Center
Thu 09:52:38 PM 30.2872 -100.4917 108° East 450 518 37,000 -49 Level Houston Center
Thu 09:53:39 PM 30.2489 -100.3525 108° East 450 518 36,900  Descending Houston Center
Thu 09:54:41 PM 30.2094 -100.2119 108° East 450 518 37,000 49 Climbing Houston Center
Thu 09:55:42 PM 30.1697 -100.0703 108° East 453 521 37,000  Level Houston Center
Thu 09:56:43 PM 30.1289 -99.9311 109° East 453 521 37,000  Level Houston Center
Thu 09:57:44 PM 30.0892 -99.7919 108° East 453 521 37,000  Level Houston Center
Thu 09:58:46 PM 30.0492 -99.6533 108° East 453 521 37,000  Level Houston Center
Thu 09:59:47 PM 30.0100 -99.5142 108° East 455 524 37,000  Level Houston Center
Thu 10:00:48 PM 29.9686 -99.3761 109° East 455 524 37,000  Level Houston Center
Thu 10:01:49 PM 29.9308 -99.2381 107° East 454 522 37,000  Level Houston Center
Thu 10:02:50 PM 29.8836 -99.1033 112° Southeast 454 522 37,000  Level Houston Center
Thu 10:03:52 PM 29.8272 -98.9511 113° Southeast 444 511 37,000  Level Houston Center
Thu 10:04:53 PM 29.7794 -98.8236 113° Southeast 436 502 37,000  Level Houston Center
Thu 10:05:54 PM 29.7317 -98.6953 113° Southeast 436 502 37,000  Level Houston Center
Thu 10:06:55 PM 29.6822 -98.5586 113° Southeast 434 499 37,000  Level Houston Center
Thu 10:07:57 PM 29.6400 -98.4414 112° Southeast 435 501 37,000  Level Houston Center
Thu 10:08:58 PM 29.6186 -98.2819 99° East 438 504 37,000  Level Houston Center
Thu 10:09:59 PM 29.5964 -98.1442 100° East 437 503 37,000  Level Houston Center
Thu 10:11:01 PM 29.5753 -98.0075 100° East 436 502 37,000  Level Houston Center
Thu 10:12:02 PM 29.5519 -97.8589 100° East 438 504 37,000  Level Houston Center
Thu 10:13:03 PM 29.5308 -97.7219 100° East 438 504 37,000  Level Houston Center
Thu 10:14:04 PM 29.5094 -97.5856 100° East 438 504 37,000 -541 Level Houston Center
Thu 10:15:05 PM 29.4872 -97.4483 101° East 438 504 35,900 -1,951 Descending Houston Center
Thu 10:16:07 PM 29.4661 -97.3128 100° East 436 502 33,000 -2,829 Descending Houston Center
Thu 10:17:08 PM 29.4436 -97.1708 100° East 448 516 30,100 -2,557 Descending Houston Center
Thu 10:18:09 PM 29.4208 -97.0308 101° East 449 517 27,800 -2,213 Descending Houston Center
Thu 10:19:10 PM 29.4031 -96.8908 98° East 448 516 25,600 -2,244 Descending Houston Center
Thu 10:20:12 PM 29.3900 -96.7450 96° East 437 503 23,200 -2,386 Descending Houston Center
Thu 10:20:38 PM 29.3833 -96.6831 97° East 428 493 22,100 -2,382 Descending Houston Center
Thu 10:21:20 PM 29.3733 -96.5883 97° East 423 487 20,500 -2,214 Descending Houston Center
Thu 10:22:21 PM 29.3600 -96.4533 96° East 411 473 18,300 -2,172 Descending Houston Center
Thu 10:23:16 PM 29.3483 -96.3397 97° East 396 456 16,300 -1,983 Descending Houston Center
Thu 10:24:16 PM 29.3406 -96.2344 95° East 386 444 14,500 -1,587 Descending Houston Center
Thu 10:25:17 PM 29.3275 -96.1211 97° East 364 419 13,100 -1,279 Descending Houston Center
Thu 10:26:18 PM 29.3606 -96.0342 66° East 313 360 11,900 -1,268 Descending Houston Center
Thu 10:27:20 PM 29.4197 -95.9506 51° Northeast 304 350 10,500 -851 Descending Houston Center
Thu 10:28:32 PM 29.4811 -95.8597 52° Northeast 273 314 10,000 -443 Descending Houston Center
Thu 10:29:22 PM 29.5106 -95.8114 55° Northeast 267 307 9,600 -716 Descending Houston Center
Thu 10:29:39 PM 29.5269 -95.7847 55° Northeast 256 295 9,200 -984 Descending Houston Center
Thu 10:30:23 PM 29.5517 -95.7436 55° Northeast 260 299 8,600 -787 Descending Houston Center
Thu 10:30:40 PM 29.5625 -95.7133 68° East 256 295 8,400 -885 Descending Houston Center
Thu 10:31:24 PM 29.5825 -95.6714 61° Northeast 257 296 7,700 -1,200 Descending Houston Center
Thu 10:31:35 PM 29.5925 -95.6475 64° Northeast 248 285 7,300 -1,082 Descending Houston Center
Thu 10:32:25 PM 29.6147 -95.6006 61° Northeast 253 291 6,600 -1,000 Descending Houston Center
Thu 10:32:35 PM 29.6242 -95.5789 63° Northeast 247 284 6,300 -1,065 Descending Houston Center
Thu 10:33:27 PM 29.6428 -95.5331 65° Northeast 239 275 5,500 -1,009 Descending Houston Center
Thu 10:34:28 PM 29.6761 -95.4717 58° Northeast 232 267 4,400 -1,131 Descending Houston Center
Thu 10:35:29 PM 29.7200 -95.4250 43° Northeast 217 250 3,200 -1,279 Descending Houston Center
Thu 10:36:30 PM 29.7153 -95.3628 95° East 188 216 1,800 -1,033 Descending Houston Center
Thu 10:37:31 PM 29.6864 -95.3269 133° Southeast 158 182 1,100 -683 Descending Houston Center
Thu 10:38:33 PM 29.6608 -95.2969 134° Southeast 144 166 400 -488 Descending Houston Center
Thu 10:39:34 PM 29.6364 -95.2678 134° Southeast 141 162 100 -295 Descending Houston Center
Thu 10:41:00 PM 29.6333 -95.2667 83° East  Level FlightAware Approximate

Login

Don't have an account? Register now (free) for customized features, flight alerts, and more!